createdAt,value
2018-10-19T00:01:02.023Z,3.70
2018-10-19T00:03:30.782Z,5.50
2018-10-19T00:05:59.522Z,7.17
2018-10-19T00:08:28.250Z,6.00
2018-10-19T00:10:57.029Z,6.57
2018-10-19T00:13:25.768Z,3.63
2018-10-19T00:15:54.570Z,3.60
2018-10-19T00:18:23.598Z,4.17
2018-10-19T00:20:53.160Z,3.13
2018-10-19T00:23:21.874Z,2.43
2018-10-19T00:25:50.697Z,8.93
2018-10-19T00:28:19.429Z,2.17
2018-10-19T00:30:48.274Z,5.57
2018-10-19T00:33:17.108Z,2.73
2018-10-19T00:35:45.810Z,6.43
2018-10-19T00:38:14.566Z,3.27
2018-10-19T00:40:43.331Z,5.15
2018-10-19T00:43:12.066Z,3.90
2018-10-19T00:45:47.466Z,2.73
2018-10-19T00:48:20.127Z,3.20
2018-10-19T00:50:48.873Z,3.77
2018-10-19T00:53:17.647Z,7.17
2018-10-19T00:55:46.386Z,4.80
2018-10-19T00:58:15.130Z,3.02
2018-10-19T01:00:43.861Z,3.03
2018-10-19T01:03:12.656Z,6.13
2018-10-19T01:05:41.660Z,1.47
2018-10-19T01:08:10.876Z,5.30
2018-10-19T01:10:39.678Z,3.33
2018-10-19T01:13:08.461Z,4.27
2018-10-19T01:15:37.201Z,3.77
2018-10-19T01:18:05.929Z,3.10
2018-10-19T01:20:34.693Z,4.43
2018-10-19T01:23:04.479Z,3.33
2018-10-19T01:25:33.178Z,6.23
2018-10-19T01:28:01.922Z,3.57
2018-10-19T01:30:30.686Z,4.57
2018-10-19T01:32:59.455Z,1.57
2018-10-19T01:35:28.176Z,2.87
2018-10-19T01:37:57.002Z,3.70
2018-10-19T01:40:25.959Z,5.43
2018-10-19T01:42:54.678Z,6.43
2018-10-19T01:45:23.428Z,4.07
2018-10-19T01:47:52.198Z,4.33
2018-10-19T01:50:20.934Z,8.30
2018-10-19T01:52:49.683Z,4.90
2018-10-19T01:55:18.458Z,10.40
2018-10-19T01:57:47.215Z,17.93
2018-10-19T02:00:15.989Z,6.05
2018-10-19T02:02:44.717Z,8.30
2018-10-19T02:05:13.491Z,1.82
2018-10-19T02:07:42.206Z,6.17
2018-10-19T02:10:10.920Z,8.17
2018-10-19T02:12:39.637Z,1.73
2018-10-19T02:15:08.523Z,2.23
2018-10-19T02:17:37.203Z,3.13
2018-10-19T02:20:06.005Z,4.40
2018-10-19T02:22:34.790Z,2.30
2018-10-19T02:25:03.581Z,5.20
2018-10-19T02:27:32.368Z,3.03
2018-10-19T02:30:01.120Z,1.93
2018-10-19T02:32:29.857Z,5.47
2018-10-19T02:34:58.638Z,5.30
2018-10-19T02:37:27.338Z,5.90
2018-10-19T02:39:56.074Z,4.23
2018-10-19T02:42:24.808Z,7.90
2018-10-19T02:44:54.258Z,2.65
2018-10-19T02:47:22.934Z,8.37
2018-10-19T02:49:52.357Z,6.00
2018-10-19T02:52:21.101Z,4.00
2018-10-19T02:54:49.879Z,2.47
2018-10-19T02:57:18.726Z,2.60
2018-10-19T02:59:47.374Z,2.50
2018-10-19T03:02:16.130Z,4.73
2018-10-19T03:04:44.919Z,2.87
2018-10-19T03:07:13.650Z,1.90
2018-10-19T03:09:42.667Z,7.33
2018-10-19T03:12:11.455Z,6.33
2018-10-19T03:14:40.182Z,4.37
2018-10-19T03:17:08.985Z,11.60
2018-10-19T03:19:37.673Z,4.20
2018-10-19T03:22:06.416Z,1.70
2018-10-19T03:24:35.133Z,7.50
2018-10-19T03:27:04.608Z,2.03
2018-10-19T03:29:33.342Z,5.17
2018-10-19T03:32:02.115Z,3.50
2018-10-19T03:34:32.443Z,8.47
2018-10-19T03:37:01.203Z,6.57
2018-10-19T03:39:29.914Z,9.10
2018-10-19T03:41:58.712Z,2.13
2018-10-19T03:44:27.493Z,5.40
2018-10-19T03:46:56.250Z,3.23
2018-10-19T03:49:24.998Z,9.30
2018-10-19T03:51:53.756Z,6.00
2018-10-19T03:54:22.499Z,5.20
2018-10-19T03:56:51.235Z,3.63
2018-10-19T03:59:20.106Z,2.10
2018-10-19T04:01:48.778Z,5.37
2018-10-19T04:04:17.542Z,5.80
2018-10-19T04:06:46.387Z,2.43
2018-10-19T04:09:15.139Z,3.43
2018-10-19T04:11:44.730Z,5.50
2018-10-19T04:14:20.067Z,12.73
2018-10-19T04:16:48.811Z,2.83
2018-10-19T04:19:17.550Z,6.43
2018-10-19T04:21:46.332Z,7.87
2018-10-19T04:24:15.099Z,5.87
2018-10-19T04:26:43.829Z,4.57
2018-10-19T04:29:12.722Z,10.40
2018-10-19T04:31:41.359Z,5.13
2018-10-19T04:34:10.154Z,5.90
2018-10-19T04:36:38.918Z,7.73
2018-10-19T04:39:08.413Z,3.00
2018-10-19T04:41:37.300Z,3.70
2018-10-19T04:44:05.990Z,4.30
2018-10-19T04:46:34.736Z,3.20
2018-10-19T04:49:04.610Z,6.33
2018-10-19T04:51:33.902Z,4.33
2018-10-19T04:54:02.682Z,4.30
2018-10-19T04:56:31.459Z,3.23
2018-10-19T04:59:00.184Z,6.37
2018-10-19T05:01:28.946Z,8.53
2018-10-19T05:03:57.728Z,5.70
2018-10-19T05:06:26.541Z,5.37
2018-10-19T05:08:55.226Z,11.20
2018-10-19T05:11:23.964Z,2.50
2018-10-19T05:13:52.773Z,4.10
2018-10-19T05:16:21.458Z,5.73
2018-10-19T05:18:50.297Z,10.97
2018-10-19T05:21:18.990Z,5.73
2018-10-19T05:23:47.787Z,5.03
2018-10-19T05:26:16.551Z,2.37
2018-10-19T05:28:46.231Z,9.23
2018-10-19T05:31:14.988Z,2.30
2018-10-19T05:33:44.458Z,3.50
2018-10-19T05:36:13.186Z,9.00
2018-10-19T05:38:41.961Z,5.53
2018-10-19T05:41:10.741Z,5.60
2018-10-19T05:43:39.548Z,5.57
2018-10-19T05:46:08.238Z,6.67
2018-10-19T05:48:37.162Z,5.57
2018-10-19T05:51:05.920Z,3.17
2018-10-19T05:53:34.651Z,6.23
2018-10-19T06:00:56.760Z,7.60
2018-10-19T06:03:26.237Z,3.70
2018-10-19T06:05:55.079Z,5.83
2018-10-19T06:08:23.808Z,9.30
2018-10-19T06:10:52.633Z,4.50
2018-10-19T06:13:21.407Z,7.37
2018-10-19T06:15:50.162Z,5.13
2018-10-19T06:18:18.964Z,6.60
2018-10-19T06:20:47.727Z,5.90
2018-10-19T06:23:16.636Z,11.27
2018-10-19T06:25:45.408Z,4.43
2018-10-19T06:28:14.356Z,5.17
2018-10-19T06:30:43.122Z,4.83
2018-10-19T06:33:11.842Z,5.12
2018-10-19T06:35:40.603Z,6.83
2018-10-19T06:38:09.425Z,10.17
2018-10-19T06:40:38.170Z,6.13
2018-10-19T06:43:06.904Z,3.33
2018-10-19T06:45:35.679Z,4.23
2018-10-19T06:48:05.026Z,9.67
2018-10-19T06:50:33.786Z,6.80
2018-10-19T06:53:03.715Z,13.73
2018-10-19T06:55:32.338Z,7.17
2018-10-19T06:58:01.123Z,8.87
2018-10-19T07:00:29.950Z,8.47
2018-10-19T07:02:58.747Z,5.33
2018-10-19T07:05:27.503Z,8.70
2018-10-19T07:07:56.302Z,4.43
2018-10-19T07:10:25.007Z,8.60
2018-10-19T07:12:53.752Z,7.00
2018-10-19T07:15:22.532Z,8.40
2018-10-19T07:17:51.354Z,10.70
2018-10-19T07:20:20.129Z,4.28
2018-10-19T07:22:48.961Z,4.70
2018-10-19T07:25:17.735Z,9.75
2018-10-19T07:27:46.552Z,4.90
2018-10-19T07:30:15.326Z,7.97
2018-10-19T07:32:44.112Z,6.87
2018-10-19T07:35:12.935Z,8.27
2018-10-19T07:37:41.703Z,9.27
2018-10-19T07:40:10.464Z,6.33
2018-10-19T07:42:39.266Z,17.00
2018-10-19T07:45:08.095Z,11.23
2018-10-19T07:47:36.977Z,5.57
2018-10-19T07:50:06.503Z,9.50
2018-10-19T07:52:35.387Z,7.53
2018-10-19T07:55:04.691Z,6.53
2018-10-19T07:57:33.487Z,7.67
2018-10-19T08:00:02.314Z,4.80
2018-10-19T08:02:31.088Z,8.57
2018-10-19T08:04:59.905Z,7.03
2018-10-19T08:07:28.674Z,13.27
2018-10-19T08:09:57.523Z,8.93
2018-10-19T08:12:26.350Z,3.67
2018-10-19T08:14:55.124Z,4.50
2018-10-19T08:17:24.028Z,12.37
2018-10-19T08:19:52.778Z,6.60
2018-10-19T08:22:21.503Z,6.40
2018-10-19T08:24:51.475Z,6.37
2018-10-19T08:27:20.258Z,7.53
2018-10-19T08:29:49.043Z,7.17
2018-10-19T08:32:17.945Z,10.98
2018-10-19T08:34:46.786Z,10.20
2018-10-19T08:37:15.663Z,7.03
2018-10-19T08:39:44.375Z,20.53
2018-10-19T08:42:13.234Z,6.30
2018-10-19T08:44:42.025Z,12.00
2018-10-19T08:47:11.748Z,9.40
2018-10-19T08:49:40.390Z,7.73
2018-10-19T08:52:09.151Z,6.67
2018-10-19T08:54:38.041Z,12.90
2018-10-19T08:57:06.826Z,6.80
2018-10-19T08:59:35.602Z,6.93
2018-10-19T09:02:04.734Z,9.53
2018-10-19T09:04:33.516Z,5.90
2018-10-19T09:07:02.283Z,26.53
2018-10-19T09:09:31.038Z,3.37
2018-10-19T09:11:59.864Z,14.07
2018-10-19T09:14:40.006Z,7.57
2018-10-19T09:17:09.159Z,13.32
2018-10-19T09:19:37.866Z,9.83
2018-10-19T09:22:06.658Z,13.00
2018-10-19T09:24:35.422Z,9.37
2018-10-19T09:27:04.556Z,3.10
2018-10-19T09:29:33.429Z,7.70
2018-10-19T09:32:02.088Z,13.53
2018-10-19T09:34:30.921Z,39.87
2018-10-19T09:36:59.708Z,6.03
2018-10-19T09:39:28.557Z,5.30
2018-10-19T09:41:57.338Z,9.37
2018-10-19T09:44:26.135Z,15.20
2018-10-19T09:46:54.907Z,6.43
2018-10-19T09:49:23.739Z,10.47
2018-10-19T09:51:52.466Z,12.23
2018-10-19T09:54:21.335Z,7.67
2018-10-19T09:56:50.120Z,8.67
2018-10-19T09:59:18.886Z,7.25
2018-10-19T10:01:47.699Z,9.83
2018-10-19T10:04:16.513Z,12.67
2018-10-19T10:06:45.284Z,5.77
2018-10-19T10:09:15.386Z,8.23
2018-10-19T10:11:44.143Z,13.40
2018-10-19T10:14:12.996Z,7.03
2018-10-19T10:16:41.740Z,10.13
2018-10-19T10:19:10.531Z,6.37
2018-10-19T10:21:39.257Z,15.70
2018-10-19T10:24:08.231Z,9.23
2018-10-19T10:26:37.058Z,7.57
2018-10-19T10:29:06.344Z,10.47
2018-10-19T10:31:35.457Z,12.70
2018-10-19T10:34:04.662Z,8.67
2018-10-19T10:36:33.458Z,9.33
2018-10-19T10:39:02.459Z,8.97
2018-10-19T10:41:31.115Z,16.43
2018-10-19T10:43:59.871Z,7.17
2018-10-19T10:46:28.630Z,9.15
2018-10-19T10:48:57.429Z,7.90
2018-10-19T10:51:26.182Z,11.60
2018-10-19T10:53:55.000Z,9.77
2018-10-19T10:56:23.758Z,5.83
2018-10-19T10:58:52.563Z,8.00
2018-10-19T11:01:21.340Z,8.60
2018-10-19T11:03:50.134Z,7.13
2018-10-19T11:06:18.990Z,7.50
2018-10-19T11:08:47.734Z,4.23
2018-10-19T11:11:16.579Z,12.50
2018-10-19T11:13:52.068Z,7.10
2018-10-19T11:16:20.812Z,8.45
2018-10-19T11:18:49.547Z,9.33
2018-10-19T11:21:18.803Z,10.25
2018-10-19T11:23:47.547Z,5.13
2018-10-19T11:26:16.354Z,10.73
2018-10-19T11:28:45.143Z,6.63
2018-10-19T11:31:13.969Z,8.83
2018-10-19T11:33:42.702Z,10.30
2018-10-19T11:36:11.442Z,7.30
2018-10-19T11:38:41.130Z,5.07
2018-10-19T11:41:09.866Z,7.77
2018-10-19T11:43:38.623Z,12.83
2018-10-19T11:46:07.467Z,10.83
2018-10-19T11:48:36.179Z,20.93
2018-10-19T11:51:05.156Z,6.27
2018-10-19T11:53:33.919Z,11.50
2018-10-19T11:56:02.703Z,11.53
2018-10-19T11:58:31.504Z,8.53
2018-10-19T12:01:00.394Z,6.67
2018-10-19T12:03:29.071Z,12.93
2018-10-19T12:05:57.818Z,10.23
2018-10-19T12:08:27.159Z,8.10
2018-10-19T12:10:56.734Z,9.30
2018-10-19T12:13:25.527Z,11.37
2018-10-19T12:15:54.401Z,11.37
2018-10-19T12:18:23.203Z,8.57
2018-10-19T12:20:52.041Z,7.47
2018-10-19T12:23:20.803Z,8.93
2018-10-19T12:25:49.648Z,7.83
2018-10-19T12:28:18.430Z,6.93
2018-10-19T12:30:47.240Z,5.03
2018-10-19T12:33:16.206Z,5.10
2018-10-19T12:35:44.850Z,12.00
2018-10-19T12:38:13.659Z,8.00
2018-10-19T12:40:42.391Z,6.27
2018-10-19T12:43:11.181Z,7.07
2018-10-19T12:46:50.238Z,6.83
2018-10-19T12:49:20.347Z,9.63
2018-10-19T12:51:49.066Z,6.33
2018-10-19T12:54:18.714Z,6.20
2018-10-19T12:56:47.391Z,6.07
2018-10-19T12:59:16.220Z,7.92
2018-10-19T13:01:44.948Z,6.23
2018-10-19T13:04:13.721Z,7.93
2018-10-19T13:06:42.507Z,14.33
2018-10-19T13:09:12.558Z,8.10
2018-10-19T13:11:41.312Z,6.37
2018-10-19T13:14:10.084Z,9.47
2018-10-19T13:16:38.856Z,7.07
2018-10-19T13:19:07.683Z,5.03
2018-10-19T13:21:36.386Z,8.97
2018-10-19T13:24:05.504Z,8.50
2018-10-19T13:26:34.795Z,8.93
2018-10-19T13:29:05.039Z,8.47
2018-10-19T13:31:33.835Z,7.53
2018-10-19T13:34:02.886Z,7.23
2018-10-19T13:36:31.658Z,10.37
2018-10-19T13:39:00.453Z,10.20
2018-10-19T13:41:29.252Z,8.23
2018-10-19T13:43:58.009Z,8.83
2018-10-19T13:46:26.762Z,5.83
2018-10-19T13:48:55.523Z,7.00
2018-10-19T13:51:24.290Z,8.80
2018-10-19T13:53:53.023Z,8.73
2018-10-19T13:56:21.783Z,8.10
2018-10-19T13:58:50.579Z,10.73
2018-10-19T14:01:19.329Z,7.87
2018-10-19T14:03:48.147Z,7.47
2018-10-19T14:06:17.010Z,7.10
2018-10-19T14:08:45.779Z,9.27
2018-10-19T14:11:14.586Z,5.33
2018-10-19T14:13:43.276Z,5.07
2018-10-19T14:16:12.053Z,6.70
2018-10-19T14:18:40.805Z,9.17
2018-10-19T14:21:09.687Z,4.57
2018-10-19T14:23:38.363Z,4.63
2018-10-19T14:26:07.151Z,7.03
2018-10-19T14:28:35.945Z,13.37
2018-10-19T14:31:04.698Z,8.40
2018-10-19T14:33:33.692Z,6.40
2018-10-19T14:36:02.290Z,6.97
2018-10-19T14:38:31.104Z,5.13
2018-10-19T14:40:59.925Z,11.17
2018-10-19T14:43:28.618Z,12.20
2018-10-19T14:45:57.389Z,4.40
2018-10-19T14:48:26.146Z,7.70
2018-10-19T14:50:54.958Z,11.70
2018-10-19T14:53:23.687Z,4.67
2018-10-19T14:55:52.435Z,4.83
2018-10-19T14:58:21.184Z,8.53
2018-10-19T15:00:49.968Z,4.60
2018-10-19T15:03:18.760Z,6.63
2018-10-19T15:05:47.585Z,9.07
2018-10-19T15:08:16.376Z,5.00
2018-10-19T15:10:45.674Z,5.23
2018-10-19T15:13:14.223Z,7.97
2018-10-19T15:15:43.144Z,6.67
2018-10-19T15:18:11.887Z,7.33
2018-10-19T15:20:40.690Z,10.43
2018-10-19T15:23:09.507Z,5.13
2018-10-19T15:25:38.307Z,5.37
2018-10-19T15:28:07.188Z,9.40
2018-10-19T15:30:36.827Z,6.53
2018-10-19T15:33:05.943Z,7.67
2018-10-19T15:35:34.777Z,10.10
2018-10-19T15:38:03.532Z,9.93
2018-10-19T15:40:32.293Z,6.20
2018-10-19T15:43:01.139Z,8.47
2018-10-19T15:45:30.218Z,10.50
2018-10-19T15:47:59.147Z,6.33
2018-10-19T15:50:27.936Z,11.07
2018-10-19T15:52:56.794Z,7.53
2018-10-19T15:55:25.636Z,11.87
2018-10-19T15:57:54.495Z,5.43
2018-10-19T16:00:23.355Z,9.40
2018-10-19T16:02:52.108Z,6.37
2018-10-19T16:05:20.862Z,6.45
2018-10-19T16:07:49.666Z,8.13
2018-10-19T16:10:18.480Z,12.28
2018-10-19T16:12:47.210Z,16.13
2018-10-19T16:15:16.043Z,16.25
2018-10-19T16:17:45.274Z,17.20
2018-10-19T16:20:14.218Z,11.87
2018-10-19T16:22:43.030Z,13.73
2018-10-19T16:25:11.912Z,10.32
2018-10-19T16:27:40.721Z,9.00
2018-10-19T16:30:10.689Z,8.63
2018-10-19T16:32:40.018Z,9.00
2018-10-19T16:35:09.911Z,10.53
2018-10-19T16:37:38.810Z,14.73
2018-10-19T16:40:07.604Z,11.03
2018-10-19T16:42:36.724Z,13.37
2018-10-19T16:45:06.493Z,9.83
2018-10-19T16:47:35.206Z,11.57
2018-10-19T16:50:04.651Z,8.93
2018-10-19T16:52:33.471Z,8.70
2018-10-19T16:55:02.336Z,11.03
2018-10-19T16:57:31.483Z,12.50
2018-10-19T17:00:00.248Z,13.70
2018-10-19T17:02:29.326Z,10.37
2018-10-19T17:04:58.502Z,14.43
2018-10-19T17:07:27.151Z,9.87
2018-10-19T17:09:55.971Z,12.10
2018-10-19T17:12:24.786Z,11.83
2018-10-19T17:14:53.642Z,14.07
2018-10-19T17:17:22.546Z,10.37
2018-10-19T17:19:51.316Z,10.70
2018-10-19T17:22:20.081Z,9.33
2018-10-19T17:24:48.850Z,13.83
2018-10-19T17:27:17.724Z,17.40
2018-10-19T17:29:46.622Z,12.03
2018-10-19T17:32:15.419Z,15.17
2018-10-19T17:34:44.202Z,13.07
2018-10-19T17:37:13.084Z,7.77
2018-10-19T17:39:41.833Z,13.10
2018-10-19T17:42:10.693Z,8.20
2018-10-19T17:44:39.445Z,12.00
2018-10-19T17:47:09.538Z,10.37
2018-10-19T17:49:38.584Z,12.03
2018-10-19T17:52:07.592Z,8.63
2018-10-19T17:54:36.408Z,8.73
2018-10-19T17:57:05.367Z,9.13
2018-10-19T17:59:34.131Z,6.67
2018-10-19T18:02:02.895Z,9.33
2018-10-19T18:04:31.780Z,10.30
2018-10-19T18:07:00.506Z,10.80
2018-10-19T18:09:29.404Z,7.33
2018-10-19T18:11:58.146Z,8.33
2018-10-19T18:14:26.924Z,8.73
2018-10-19T18:16:55.718Z,9.50
2018-10-19T18:19:24.483Z,10.33
2018-10-19T18:21:53.677Z,9.53
2018-10-19T18:24:22.203Z,11.35
2018-10-19T18:26:50.970Z,13.17
2018-10-19T18:29:19.730Z,9.60
2018-10-19T18:31:48.480Z,11.30
2018-10-19T18:34:17.275Z,8.87
2018-10-19T18:36:46.010Z,10.40
2018-10-19T18:39:14.847Z,11.13
2018-10-19T18:41:44.279Z,11.03
2018-10-19T18:44:13.024Z,11.95
2018-10-19T18:46:41.802Z,9.90
2018-10-19T18:49:10.584Z,14.33
2018-10-19T18:51:39.337Z,11.37
2018-10-19T18:54:08.167Z,15.97
2018-10-19T18:56:36.950Z,16.73
2018-10-19T18:59:05.689Z,15.73
2018-10-19T19:01:34.467Z,14.57
2018-10-19T19:04:04.116Z,26.80
2018-10-19T19:06:32.910Z,18.53
2018-10-19T19:09:01.693Z,18.87
2018-10-19T19:11:30.494Z,23.97
2018-10-19T19:13:59.315Z,18.43
2018-10-19T19:16:30.068Z,22.60
2018-10-19T19:18:58.865Z,12.63
2018-10-19T19:21:27.638Z,13.67
2018-10-19T19:24:01.802Z,13.97
2018-10-19T19:26:30.574Z,14.57
2018-10-19T19:28:59.390Z,13.63
2018-10-19T19:31:28.230Z,17.57
2018-10-19T19:34:02.564Z,13.23
2018-10-19T19:36:31.284Z,10.60
2018-10-19T19:39:00.703Z,15.07
2018-10-19T19:41:34.712Z,11.43
2018-10-19T19:44:04.176Z,10.93
2018-10-19T19:46:32.896Z,15.37
2018-10-19T19:49:07.219Z,12.10
2018-10-19T19:51:35.883Z,11.37
2018-10-19T19:54:04.969Z,11.30
2018-10-19T19:56:33.711Z,13.53
2018-10-19T19:59:02.656Z,14.57
2018-10-19T20:01:31.323Z,12.70
2018-10-19T20:04:00.096Z,20.77
2018-10-19T20:06:28.834Z,15.23
2018-10-19T20:08:57.566Z,14.80
2018-10-19T20:11:26.786Z,14.17
2018-10-19T20:13:55.592Z,13.77
2018-10-19T20:16:24.338Z,15.87
2018-10-19T20:18:53.074Z,11.87
2018-10-19T20:21:21.839Z,20.73
2018-10-19T20:23:50.860Z,13.27
2018-10-19T20:26:19.674Z,13.93
2018-10-19T20:28:48.378Z,14.33
2018-10-19T20:31:17.186Z,17.13
2018-10-19T20:33:45.928Z,14.87
2018-10-19T20:36:14.803Z,14.68
2018-10-19T20:38:43.606Z,12.03
2018-10-19T20:41:12.555Z,14.10
2018-10-19T20:43:41.251Z,16.30
2018-10-19T20:46:10.014Z,16.30
2018-10-19T20:48:38.816Z,22.10
2018-10-19T20:51:07.642Z,13.27
2018-10-19T20:53:36.533Z,15.63
2018-10-19T20:56:05.423Z,12.40
2018-10-19T20:58:35.159Z,17.37
2018-10-19T21:01:04.622Z,17.27
2018-10-19T21:03:33.366Z,14.93
2018-10-19T21:06:02.147Z,20.03
2018-10-19T21:08:30.936Z,19.97
2018-10-19T21:10:59.663Z,25.00
2018-10-19T21:13:29.379Z,18.83
2018-10-19T21:15:58.122Z,18.67
2018-10-19T21:18:26.900Z,17.97
2018-10-19T21:20:55.662Z,16.00
2018-10-19T21:23:24.483Z,16.63
2018-10-19T21:25:53.265Z,17.13
2018-10-19T21:28:21.992Z,25.07
2018-10-19T21:30:50.726Z,13.27
2018-10-19T21:33:19.467Z,14.77
2018-10-19T21:35:48.201Z,18.03
2018-10-19T21:38:16.977Z,16.00
2018-10-19T21:40:45.783Z,15.17
2018-10-19T21:43:14.562Z,17.83
2018-10-19T21:45:43.315Z,20.57
2018-10-19T21:48:12.062Z,30.00
2018-10-19T21:50:40.818Z,23.57
2018-10-19T21:53:09.744Z,24.77
2018-10-19T21:55:38.367Z,18.60
2018-10-19T21:58:07.138Z,25.63
2018-10-19T22:00:35.945Z,17.73
2018-10-19T22:03:04.926Z,22.73
2018-10-19T22:05:33.688Z,23.73
2018-10-19T22:08:02.439Z,15.90
2018-10-19T22:10:31.207Z,18.00
2018-10-19T22:12:59.987Z,21.63
2018-10-19T22:15:28.687Z,20.20
2018-10-19T22:17:59.019Z,17.20
2018-10-19T22:20:27.759Z,21.97
2018-10-19T22:22:56.580Z,27.80
2018-10-19T22:25:25.270Z,22.17
2018-10-19T22:27:54.036Z,27.10
2018-10-19T22:30:22.794Z,23.37
2018-10-19T22:32:51.543Z,16.40
2018-10-19T22:35:20.276Z,22.50
2018-10-19T22:37:49.067Z,18.80
2018-10-19T22:40:17.815Z,15.33
2018-10-19T22:42:46.546Z,19.17
2018-10-19T22:45:15.346Z,20.02
2018-10-19T22:47:44.083Z,21.63
2018-10-19T22:50:12.861Z,17.87
2018-10-19T22:52:41.598Z,14.30
2018-10-19T22:55:10.393Z,13.60
2018-10-19T22:57:39.061Z,19.33
2018-10-19T23:00:08.160Z,13.93
2018-10-19T23:02:37.036Z,16.43
2018-10-19T23:05:05.910Z,17.67
2018-10-19T23:07:34.622Z,16.87
2018-10-19T23:10:05.391Z,19.97
2018-10-19T23:12:34.115Z,19.87
2018-10-19T23:15:02.845Z,18.80
2018-10-19T23:17:31.570Z,20.27
2018-10-19T23:20:00.313Z,20.73
2018-10-19T23:22:29.082Z,27.27
2018-10-19T23:24:57.863Z,21.77
2018-10-19T23:27:26.610Z,20.23
2018-10-19T23:29:55.342Z,19.60
2018-10-19T23:32:24.093Z,17.40
2018-10-19T23:34:52.895Z,18.63
2018-10-19T23:37:21.589Z,19.60
2018-10-19T23:39:50.409Z,19.90
2018-10-19T23:42:19.171Z,16.73
2018-10-19T23:44:47.903Z,20.80
2018-10-19T23:47:16.782Z,14.30
2018-10-19T23:49:45.682Z,15.77
2018-10-19T23:52:14.440Z,18.60
2018-10-19T23:54:43.218Z,20.83
2018-10-19T23:57:12.966Z,17.65
2018-10-19T23:59:41.797Z,13.47
